< < Back
Terminal Aerodrome Forecast


Current Version              Previous Versions:   1  2  3  4  5  6  7  8  9  

Terminal Aerodrome Forecast

881
FTUS42 KGSP 280000 AAA
TAFAVL
TAF AMD
KAVL 280046Z 2801/2824 23008KT P6SM VCTS BKN060CB
      TEMPO 2801/2803 24025G40KT
     FM280300 28008KT P6SM VCTS BKN040CB
     FM280900 32010KT P6SM BKN250
     FM281000 32010KT P6SM BKN250
     FM281600 32015G25KT P6SM SCT250
     FM282200 32012KT P6SM SCT050=



Latest METAR

040
SAUS70 KWBC 280400 RRE
MTRAVL
METAR KAVL 280354Z AUTO 02004KT 10SM CLR 20/18 A2995 RMK AO2 RAE38
SLP114 P0000 T02000178 $


USA.gov is the U.S. government's official web portal to all federal, state and local government web resources and services.